Daily Summary

Last 30 Days

Daily Data | Pacific/Honolulu
as of 1/29/22 4:09 AM HST
Date Daily Max Temp (°F) Time of Max Temp Daily Min Temp (°F) Time of Min Temp Daily Rain (In) Seasonal Rainfall (In) Wind Spd (mph) Daily Max Wind (mph) Time of Max Wind Max Wind Dir (°) Daily Solar Rad (Cal/cm2) Daily ETo (in) Dew Pt (°F) Max RH (%) Min RH (%) Max Press (inHg) Time of Max Press Min Press (inHg) Time of Min Press Bat Volt Min Day (V)
1/28/22 83.4 1326 66.6 0728 0.00 6.26 3.2 14.8 1429 ESE | 118 434 0.142 64.9 87 50 30.19 0913 30.02 1535 12.7
1/27/22 81.1 1325 66.7 0716 0.00 6.26 4.0 19.5 1621 NNE | 29 370 0.126 64.1 86 54 30.16 2355 30.02 1558 12.7
1/26/22 80.7 1419 71.8 0018 0.00 6.26 5.7 19.3 1332 NE | 41 389 0.144 64.0 82 53 30.11 0938 29.99 1525 12.8
1/25/22 80.9 1536 70.6 0340 0.01 6.26 5.8 23.8 0952 NE | 34 443 0.156 64.3 82 56 30.14 0110 29.99 1509 12.8
1/24/22 78.8 1417 72.3 0754 0.00 6.25 6.1 27.1 1227 NNE | 29 456 0.167 61.8 74 54 30.15 1012 30.03 1548 12.7
1/23/22 81.6 1329 73.6 0317 0.00 6.25 6.3 19.5 1300 NNE | 32 464 0.167 65.3 76 58 30.15 0909 30.04 1520 12.7
1/22/22 79.7 1320 73.1 0548 0.00 6.25 6.2 23.5 1343 NNE | 30 431 0.154 65.7 77 61 30.12 2258 30.00 1523 12.7
1/21/22 81.4 1146 68.8 0629 0.00 6.25 3.2 18.6 1253 NNE | 27 429 0.140 66.5 88 57 30.12 1032 30.01 1526 12.7
1/20/22 80.4 1549 68.7 0600 0.00 6.25 3.5 13.0 1146 SW | 226 408 0.129 67.5 90 61 30.08 2207 29.97 1557 12.7
1/19/22 82.8 1323 68.0 0439 0.00 6.25 3.9 12.5 1142 NE | 38 430 0.144 65.7 89 53 30.04 1011 29.92 1529 12.7
1/18/22 80.6 1332 67.4 0747 0.00 6.25 3.7 10.9 1425 SSW | 197 445 0.142 65.3 88 56 30.04 1039 29.90 1555 12.7
1/17/22 80.9 1438 66.8 0616 0.00 6.25 2.9 12.0 1203 S | 184 425 0.133 65.0 89 57 30.03 1106 29.90 1503 12.7
1/16/22 82.4 1213 67.0 0658 0.00 6.25 2.5 9.8 1251 E | 87 432 0.137 64.8 88 51 30.07 0913 29.93 1536 12.7
1/15/22 79.4 1222 66.6 0723 0.00 6.25 3.4 10.4 1406 SSW | 194 412 0.127 66.7 92 62 30.08 1014 29.96 1536 12.7
1/14/22 82.6 1145 69.1 0721 0.38 6.25 2.8 13.5 1345 SW | 220 444 0.141 67.7 92 62 30.11 2258 29.98 1555 12.7
1/13/22 82.2 1305 67.5 0647 0.00 5.87 3.1 15.0 1507 NE | 43 320 0.112 66.4 90 55 30.11 0930 29.99 1531 12.7
1/12/22 83.9 1211 68.7 0737 0.01 5.87 2.9 15.7 1350 NNE | 29 268 0.098 66.4 88 54 30.17 0857 30.04 1444 12.7
1/11/22 78.7 1223 68.8 0208 0.00 5.86 6.4 23.7 1316 NNE | 24 435 0.155 63.0 87 58 30.18 0948 30.05 1509 12.7
1/10/22 79.0 1135 68.3 0138 0.00 5.86 4.0 15.3 1303 SSW | 202 397 0.121 68.2 92 72 30.15 2326 29.97 0344 12.7
1/9/22 80.0 1408 67.4 0750 0.00 5.86 3.2 12.4 1333 SSW | 192 378 0.118 66.5 90 65 30.02 2312 29.91 1446 12.7
1/8/22 81.7 1142 64.8 0631 0.00 5.86 3.5 10.4 1428 SSW | 205 434 0.136 65.1 89 58 30.01 0919 29.89 1435 12.7
1/7/22 79.4 1207 66.8 2359 0.00 5.86 3.0 13.0 1342 SSW | 209 358 0.112 67.0 92 67 30.02 0905 29.89 1611 12.7
1/6/22 80.9 1358 68.1 0506 0.01 5.86 2.9 16.2 1422 NE | 35 341 0.111 67.0 91 65 30.07 0001 29.92 1521 12.7
1/5/22 81.0 1424 68.9 0738 0.09 5.85 2.5 12.1 1141 SW | 225 356 0.110 68.6 94 69 30.08 2255 29.97 1446 12.8
1/4/22 78.4 1059 68.7 0151 0.71 5.76 3.4 18.6 1455 S | 185 231 0.073 69.3 95 68 30.03 2133 29.90 0355 12.7
1/3/22 77.4 1412 69.0 1104 0.70 5.05 2.6 12.0 1048 SSW | 213 173 0.053 68.1 95 73 30.02 1058 29.87 1400 12.7
1/2/22 74.5 0118 66.5 1218 1.06 4.35 3.6 22.6 1144 SW | 223 94 0.036 67.2 95 79 30.00 1146 29.84 1628 12.7
1/1/22 76.2 0218 67.4 2222 3.29 3.29 3.0 15.6 0211 SSE | 161 70 0.030 69.0 95 86 29.94 1141 29.83 0325 12.7
12/31/21 76.2 1125 71.1 2332 1.09 36.91 2.5 14.2 1012 SSW | 213 112 0.041 70.7 95 84 29.91 0003 29.80 1450 12.7
12/30/21 77.6 1101 70.8 2028 0.82 35.82 6.4 23.8 1233 ENE | 77 195 0.077 68.4 93 71 30.01 0004 29.87 1649 12.8
Max 83.9 - 73.6 - 3.29 - 6.4 27.1 - - 464 0.167 70.7 95 86 30.19 - 30.05 - 12.8
Avg - - - - - - 3.9 - - - - - 66.3 - - - - - - -
Min 74.5 - 64.8 - 0.00 - 2.5 9.8 - - 70 0.030 61.8 74 50 29.91 - 29.80 - 12.7